createdAt,value
2019-01-11T00:00:43.236Z,3.10
2019-01-11T00:03:10.431Z,7.33
2019-01-11T00:05:37.694Z,1.57
2019-01-11T00:08:04.883Z,2.63
2019-01-11T00:10:32.078Z,2.30
2019-01-11T00:12:59.283Z,4.27
2019-01-11T00:15:26.499Z,2.10
2019-01-11T00:17:53.706Z,5.70
2019-01-11T00:20:20.963Z,2.00
2019-01-11T00:22:48.183Z,1.67
2019-01-11T00:25:15.416Z,1.37
2019-01-11T00:27:42.674Z,1.57
2019-01-11T00:30:09.966Z,9.23
2019-01-11T00:32:37.242Z,8.03
2019-01-11T00:35:05.024Z,3.63
2019-01-11T00:37:32.258Z,30.47
2019-01-11T00:39:59.495Z,18.73
2019-01-11T00:42:26.851Z,13.80
2019-01-11T00:44:54.135Z,6.20
2019-01-11T00:47:21.310Z,5.40
2019-01-11T00:49:48.581Z,1.50
2019-01-11T00:52:15.765Z,7.87
2019-01-11T00:54:43.085Z,2.47
2019-01-11T00:57:10.245Z,3.13
2019-01-11T00:59:37.466Z,5.53
2019-01-11T01:02:04.721Z,7.90
2019-01-11T01:04:31.926Z,12.80
2019-01-11T01:06:59.155Z,6.67
2019-01-11T01:09:26.375Z,10.17
2019-01-11T01:11:53.730Z,7.50
2019-01-11T01:14:20.924Z,3.03
2019-01-11T01:16:48.107Z,7.80
2019-01-11T01:19:20.035Z,9.03
2019-01-11T01:21:44.447Z,3.13
2019-01-11T01:24:11.714Z,4.63
2019-01-11T01:26:38.907Z,3.10
2019-01-11T01:29:06.091Z,3.87
2019-01-11T01:31:33.323Z,2.80
2019-01-11T01:34:00.496Z,4.20
2019-01-11T01:36:27.693Z,5.73
2019-01-11T01:38:54.892Z,2.87
2019-01-11T01:41:22.088Z,1.77
2019-01-11T01:43:49.419Z,2.33
2019-01-11T01:46:16.733Z,2.40
2019-01-11T01:48:45.309Z,4.63
2019-01-11T01:51:12.775Z,1.50
2019-01-11T01:53:40.000Z,9.60
2019-01-11T01:56:07.237Z,7.53
2019-01-11T01:58:34.414Z,1.73
2019-01-11T02:01:01.663Z,2.60
2019-01-11T02:03:28.830Z,3.90
2019-01-11T02:05:56.082Z,5.23
2019-01-11T02:08:23.262Z,2.27
2019-01-11T02:10:50.523Z,1.63
2019-01-11T02:13:17.839Z,6.37
2019-01-11T02:15:45.039Z,6.83
2019-01-11T02:18:12.242Z,10.53
2019-01-11T02:20:39.448Z,7.93
2019-01-11T02:23:06.722Z,3.43
2019-01-11T02:25:33.972Z,3.67
2019-01-11T02:28:01.235Z,3.83
2019-01-11T02:30:28.445Z,4.00
2019-01-11T02:32:55.697Z,3.33
2019-01-11T02:35:22.905Z,7.67
2019-01-11T02:37:50.125Z,2.20
2019-01-11T02:40:17.322Z,1.50
2019-01-11T02:42:44.566Z,2.60
2019-01-11T02:45:13.758Z,6.60
2019-01-11T02:47:40.983Z,7.40
2019-01-11T02:50:08.807Z,1.30
2019-01-11T02:52:36.100Z,2.37
2019-01-11T02:55:03.900Z,1.40
2019-01-11T02:57:31.111Z,1.63
2019-01-11T02:59:58.353Z,3.00
2019-01-11T03:02:25.539Z,1.60
2019-01-11T03:04:52.768Z,1.90
2019-01-11T03:07:20.028Z,3.40
2019-01-11T03:09:47.260Z,2.30
2019-01-11T03:12:14.456Z,3.17
2019-01-11T03:14:41.673Z,2.80
2019-01-11T03:17:08.857Z,1.50
2019-01-11T03:19:36.067Z,1.97
2019-01-11T03:22:03.314Z,2.13
2019-01-11T03:24:30.546Z,1.80
2019-01-11T03:26:57.788Z,2.23
2019-01-11T03:29:25.022Z,2.13
2019-01-11T03:31:52.248Z,3.63
2019-01-11T03:34:19.502Z,1.87
2019-01-11T03:36:46.687Z,8.10
2019-01-11T03:39:13.987Z,1.40
2019-01-11T03:42:03.980Z,1.23
2019-01-11T03:44:31.142Z,1.40
2019-01-11T03:46:58.343Z,7.20
2019-01-11T03:49:25.542Z,2.03
2019-01-11T03:51:52.872Z,3.47
2019-01-11T03:54:20.030Z,4.33
2019-01-11T03:56:47.235Z,1.77
2019-01-11T03:59:14.458Z,1.30
2019-01-11T04:01:41.691Z,1.27
2019-01-11T04:04:09.014Z,2.40
2019-01-11T04:06:36.205Z,7.10
2019-01-11T04:09:07.166Z,4.07
2019-01-11T04:11:34.374Z,2.03
2019-01-11T04:14:01.553Z,3.07
2019-01-11T04:16:28.734Z,1.97
2019-01-11T04:19:00.198Z,2.40
2019-01-11T04:21:27.481Z,1.37
2019-01-11T04:23:54.698Z,1.60
2019-01-11T04:26:21.938Z,1.77
2019-01-11T04:28:49.159Z,2.50
2019-01-11T04:31:16.364Z,3.13
2019-01-11T04:33:43.738Z,1.37
2019-01-11T04:36:10.927Z,1.50
2019-01-11T04:38:38.106Z,3.30
2019-01-11T04:41:05.440Z,1.30
2019-01-11T04:43:32.660Z,2.00
2019-01-11T04:45:59.899Z,1.87
2019-01-11T04:48:27.265Z,1.50
2019-01-11T04:50:54.605Z,2.00
2019-01-11T04:53:21.871Z,1.17
2019-01-11T04:55:49.221Z,2.17
2019-01-11T04:58:16.469Z,1.70
2019-01-11T05:00:43.796Z,1.63
2019-01-11T05:03:11.002Z,2.20
2019-01-11T05:05:38.211Z,1.30
2019-01-11T05:08:05.518Z,3.20
2019-01-11T05:10:32.725Z,1.93
2019-01-11T05:13:18.205Z,2.80
2019-01-11T05:15:45.397Z,6.20
2019-01-11T05:18:12.717Z,3.37
2019-01-11T05:20:39.988Z,4.50
2019-01-11T05:23:07.230Z,5.47
2019-01-11T05:25:34.523Z,3.10
2019-01-11T05:28:01.872Z,4.10
2019-01-11T05:30:29.263Z,5.37
2019-01-11T05:32:56.525Z,6.90
2019-01-11T05:35:23.781Z,4.63
2019-01-11T05:37:51.055Z,2.73
2019-01-11T05:40:18.725Z,5.90
2019-01-11T05:42:45.933Z,3.80
2019-01-11T05:45:13.339Z,4.70
2019-01-11T05:47:40.514Z,5.20
2019-01-11T05:50:09.274Z,4.20
2019-01-11T05:52:36.596Z,2.20
2019-01-11T05:55:04.835Z,6.67
2019-01-11T05:57:32.166Z,6.17
2019-01-11T05:59:59.471Z,2.13
2019-01-11T06:02:26.687Z,5.43
2019-01-11T06:05:00.419Z,4.70
2019-01-11T06:07:47.250Z,7.03
2019-01-11T06:10:14.809Z,4.40
2019-01-11T06:12:42.155Z,3.43
2019-01-11T06:15:09.489Z,2.17
2019-01-11T06:17:36.682Z,3.63
2019-01-11T06:20:06.205Z,5.80
2019-01-11T06:22:33.399Z,3.27
2019-01-11T06:25:00.608Z,3.40
2019-01-11T06:27:27.912Z,2.90
2019-01-11T06:29:55.104Z,4.60
2019-01-11T06:32:22.317Z,3.90
2019-01-11T06:34:49.554Z,6.73
2019-01-11T06:37:16.752Z,5.70
2019-01-11T06:39:44.538Z,7.87
2019-01-11T06:42:31.382Z,17.13
2019-01-11T06:44:58.990Z,15.20
2019-01-11T06:47:26.689Z,7.00
2019-01-11T06:49:53.852Z,29.77
2019-01-11T06:52:21.072Z,5.90
2019-01-11T06:54:48.392Z,9.07
2019-01-11T06:57:15.766Z,4.10
2019-01-11T06:59:43.079Z,7.87
2019-01-11T07:02:10.324Z,3.80
2019-01-11T07:04:37.759Z,12.13
2019-01-11T07:07:05.025Z,4.40
2019-01-11T07:09:32.496Z,8.17
2019-01-11T07:12:01.111Z,5.87
2019-01-11T07:14:30.460Z,11.43
2019-01-11T07:16:57.653Z,12.10
2019-01-11T07:19:24.829Z,7.50
2019-01-11T07:21:52.153Z,18.60
2019-01-11T07:24:19.371Z,7.10
2019-01-11T07:26:46.694Z,10.00
2019-01-11T07:29:13.925Z,26.50
2019-01-11T07:31:44.510Z,18.37
2019-01-11T07:34:12.003Z,13.10
2019-01-11T07:36:47.582Z,26.07
2019-01-11T07:39:43.408Z,13.60
2019-01-11T07:42:10.719Z,19.37
2019-01-11T07:44:38.072Z,13.80
2019-01-11T07:47:05.315Z,9.10
2019-01-11T07:49:32.555Z,13.87
2019-01-11T07:51:59.772Z,10.43
2019-01-11T07:54:27.007Z,10.53
2019-01-11T07:56:55.204Z,12.67
2019-01-11T07:59:22.645Z,8.90
2019-01-11T08:01:49.929Z,29.40
2019-01-11T08:04:18.051Z,14.43
2019-01-11T08:06:45.785Z,6.27
2019-01-11T08:09:13.572Z,11.40
2019-01-11T08:11:40.995Z,7.50
2019-01-11T08:14:08.367Z,10.93
2019-01-11T08:16:35.565Z,9.20
2019-01-11T08:19:02.822Z,9.20
2019-01-11T08:21:30.030Z,9.93
2019-01-11T08:23:57.253Z,6.67
2019-01-11T08:26:24.505Z,7.97
2019-01-11T08:28:51.729Z,11.23
2019-01-11T08:31:18.950Z,9.33
2019-01-11T08:33:46.126Z,8.97
2019-01-11T08:36:13.327Z,7.23
2019-01-11T08:38:40.648Z,7.17
2019-01-11T08:41:07.859Z,3.60
2019-01-11T08:43:35.079Z,4.10
2019-01-11T08:46:02.433Z,6.60
2019-01-11T08:48:29.625Z,4.90
2019-01-11T08:51:02.455Z,8.23
2019-01-11T08:53:25.991Z,5.63
2019-01-11T08:55:53.332Z,6.07
2019-01-11T08:58:20.964Z,7.00
2019-01-11T09:00:48.633Z,7.60
2019-01-11T09:03:16.366Z,5.00
2019-01-11T09:05:43.559Z,7.50
2019-01-11T09:08:10.877Z,8.47
2019-01-11T09:10:38.491Z,8.27
2019-01-11T09:13:05.715Z,4.53
2019-01-11T09:15:33.543Z,7.77
2019-01-11T09:18:06.142Z,5.73
2019-01-11T09:20:33.357Z,6.37
2019-01-11T09:23:00.573Z,5.40
2019-01-11T09:25:28.010Z,10.40
2019-01-11T09:27:55.219Z,7.60
2019-01-11T09:30:22.452Z,5.40
2019-01-11T09:32:49.667Z,6.27
2019-01-11T09:35:17.025Z,3.87
2019-01-11T09:37:44.238Z,13.10
2019-01-11T09:40:11.606Z,9.13
2019-01-11T09:42:38.792Z,6.93
2019-01-11T09:45:06.056Z,10.03
2019-01-11T09:47:33.438Z,5.30
2019-01-11T09:50:00.678Z,14.33
2019-01-11T09:52:27.964Z,11.77
2019-01-11T09:54:55.452Z,8.80
2019-01-11T09:57:22.663Z,4.40
2019-01-11T09:59:49.945Z,8.80
2019-01-11T10:02:34.459Z,4.80
2019-01-11T10:05:01.932Z,3.30
2019-01-11T10:07:29.998Z,3.37
2019-01-11T10:09:57.310Z,18.80
2019-01-11T10:12:24.529Z,8.90
2019-01-11T10:14:51.766Z,6.37
2019-01-11T10:17:19.327Z,6.87
2019-01-11T10:19:46.531Z,4.20
2019-01-11T10:22:13.851Z,7.17
2019-01-11T10:24:41.180Z,9.13
2019-01-11T10:27:08.473Z,9.03
2019-01-11T10:29:40.237Z,8.73
2019-01-11T10:32:07.513Z,3.10
2019-01-11T10:34:34.814Z,3.63
2019-01-11T10:37:02.011Z,3.47
2019-01-11T10:39:29.269Z,3.07
2019-01-11T10:41:56.442Z,4.40
2019-01-11T10:44:24.672Z,4.83
2019-01-11T10:46:51.921Z,4.57
2019-01-11T10:49:19.131Z,3.20
2019-01-11T10:51:46.387Z,5.00
2019-01-11T10:54:23.627Z,2.83
2019-01-11T10:56:50.994Z,2.50
2019-01-11T10:59:18.314Z,2.20
2019-01-11T11:01:45.546Z,3.50
2019-01-11T11:04:12.783Z,9.87
2019-01-11T11:06:39.951Z,5.33
2019-01-11T11:09:07.711Z,5.00
2019-01-11T11:11:34.896Z,4.50
2019-01-11T11:14:02.112Z,5.00
2019-01-11T11:16:32.887Z,4.30
2019-01-11T11:18:58.571Z,7.63
2019-01-11T11:21:25.809Z,5.30
2019-01-11T11:23:54.130Z,6.60
2019-01-11T11:26:21.551Z,4.70
2019-01-11T11:28:48.851Z,2.23
2019-01-11T11:31:16.046Z,4.83
2019-01-11T11:33:43.244Z,5.57
2019-01-11T11:36:10.456Z,11.23
2019-01-11T11:38:37.634Z,7.93
2019-01-11T11:41:04.976Z,6.00
2019-01-11T11:43:32.226Z,3.10
2019-01-11T11:45:59.393Z,2.70
2019-01-11T11:48:26.599Z,4.33
2019-01-11T11:50:53.791Z,6.10
2019-01-11T11:53:21.179Z,13.47
2019-01-11T11:55:48.371Z,6.13
2019-01-11T11:58:15.582Z,4.73
2019-01-11T12:00:42.850Z,10.43
2019-01-11T12:03:10.036Z,9.57
2019-01-11T12:05:38.158Z,15.03
2019-01-11T12:08:05.364Z,5.23
2019-01-11T12:10:32.622Z,3.80
2019-01-11T12:12:59.834Z,3.90
2019-01-11T12:15:27.154Z,8.60
2019-01-11T12:17:54.488Z,7.33
2019-01-11T12:20:31.177Z,7.87
2019-01-11T12:22:58.510Z,3.57
2019-01-11T12:25:25.714Z,8.40
2019-01-11T12:27:52.919Z,7.10
2019-01-11T12:30:20.119Z,6.90
2019-01-11T12:32:47.396Z,5.80
2019-01-11T12:35:14.589Z,3.80
2019-01-11T12:37:41.760Z,5.43
2019-01-11T12:40:09.783Z,4.57
2019-01-11T12:42:36.993Z,6.57
2019-01-11T12:45:05.663Z,4.73
2019-01-11T12:47:32.844Z,6.10
2019-01-11T12:50:00.093Z,4.47
2019-01-11T12:52:27.379Z,5.63
2019-01-11T12:54:54.646Z,5.10
2019-01-11T12:57:21.918Z,4.00
2019-01-11T12:59:49.130Z,6.77
2019-01-11T13:02:16.387Z,2.67
2019-01-11T13:04:43.560Z,8.07
2019-01-11T13:07:10.749Z,7.37
2019-01-11T13:09:37.989Z,4.90
2019-01-11T13:12:05.195Z,4.27
2019-01-11T13:14:32.420Z,6.70
2019-01-11T13:16:59.600Z,7.63
2019-01-11T13:19:26.807Z,10.70
2019-01-11T13:22:00.402Z,11.37
2019-01-11T13:24:23.297Z,23.10
2019-01-11T13:26:50.556Z,33.97
2019-01-11T13:29:17.762Z,22.60
2019-01-11T13:31:44.911Z,28.77
2019-01-11T13:34:12.099Z,32.83
2019-01-11T13:36:39.335Z,32.97
2019-01-11T13:39:10.263Z,28.70
2019-01-11T13:41:37.422Z,14.60
2019-01-11T13:44:04.714Z,17.10
2019-01-11T13:46:31.937Z,21.33
2019-01-11T13:48:59.130Z,42.10
2019-01-11T13:51:26.356Z,22.93
2019-01-11T13:53:53.573Z,14.90
2019-01-11T13:56:20.746Z,19.13
2019-01-11T13:58:47.969Z,23.83
2019-01-11T14:01:15.143Z,16.90
2019-01-11T14:03:42.371Z,13.47
2019-01-11T14:06:09.601Z,13.87
2019-01-11T14:08:36.912Z,17.57
2019-01-11T14:11:04.135Z,14.27
2019-01-11T14:13:31.303Z,11.00
2019-01-11T14:15:58.509Z,11.53
2019-01-11T14:18:25.682Z,13.47
2019-01-11T14:20:52.931Z,7.60
2019-01-11T14:23:20.097Z,10.20
2019-01-11T14:25:47.329Z,16.20
2019-01-11T14:28:14.513Z,14.03
2019-01-11T14:30:41.770Z,11.30
2019-01-11T14:33:08.995Z,12.93
2019-01-11T14:35:36.220Z,9.10
2019-01-11T14:38:03.368Z,14.70
2019-01-11T14:40:30.591Z,7.30
2019-01-11T14:42:57.924Z,8.40
2019-01-11T14:45:25.185Z,16.60
2019-01-11T14:47:52.344Z,7.53
2019-01-11T14:50:19.716Z,13.57
2019-01-11T14:52:47.075Z,12.00
2019-01-11T14:55:14.308Z,11.17
2019-01-11T14:57:41.523Z,8.87
2019-01-11T15:00:12.126Z,11.00
2019-01-11T15:02:39.296Z,8.43
2019-01-11T15:05:09.413Z,10.43
2019-01-11T15:07:36.651Z,13.93
2019-01-11T15:10:05.055Z,10.07
2019-01-11T15:12:32.286Z,8.70
2019-01-11T15:14:59.445Z,10.47
2019-01-11T15:17:26.639Z,7.80
2019-01-11T15:19:53.859Z,6.80
2019-01-11T15:22:26.440Z,11.60
2019-01-11T15:24:50.199Z,10.07
2019-01-11T15:27:17.380Z,12.67
2019-01-11T15:29:44.626Z,13.30
2019-01-11T15:32:11.830Z,9.77
2019-01-11T15:34:39.880Z,9.93
2019-01-11T15:37:07.223Z,13.50
2019-01-11T15:39:34.403Z,6.17
2019-01-11T15:42:01.608Z,6.13
2019-01-11T15:44:28.814Z,5.40
2019-01-11T15:46:56.039Z,15.80
2019-01-11T15:49:23.377Z,10.90
2019-01-11T15:51:50.542Z,8.10
2019-01-11T15:54:17.766Z,10.37
2019-01-11T15:56:44.986Z,17.20
2019-01-11T15:59:12.189Z,5.87
2019-01-11T16:01:39.447Z,7.67
2019-01-11T16:04:06.609Z,8.80
2019-01-11T16:06:34.862Z,8.43
2019-01-11T16:09:57.119Z,11.13
2019-01-11T16:12:30.579Z,8.20
2019-01-11T16:15:23.930Z,4.90
2019-01-11T16:17:51.949Z,11.47
2019-01-11T16:20:19.195Z,8.03
2019-01-11T16:22:46.501Z,9.40
2019-01-11T16:25:14.123Z,7.20
2019-01-11T16:27:41.512Z,7.23
2019-01-11T16:30:10.093Z,6.70
2019-01-11T16:32:37.287Z,8.17
2019-01-11T16:35:04.733Z,8.17
2019-01-11T16:37:31.917Z,10.47
2019-01-11T16:39:59.123Z,8.27
2019-01-11T16:42:26.299Z,9.40
2019-01-11T16:44:53.523Z,8.33
2019-01-11T16:47:20.787Z,9.50
2019-01-11T16:49:47.935Z,7.27
2019-01-11T16:52:15.514Z,15.93
2019-01-11T16:54:42.913Z,11.67
2019-01-11T16:57:10.105Z,6.43
2019-01-11T16:59:37.315Z,7.00
2019-01-11T17:02:04.530Z,6.33
2019-01-11T17:04:31.780Z,7.53
2019-01-11T17:06:58.952Z,7.60
2019-01-11T17:09:26.186Z,8.33
2019-01-11T17:11:53.351Z,11.20
2019-01-11T17:14:20.541Z,8.37
2019-01-11T17:16:47.781Z,10.33
2019-01-11T17:19:14.967Z,8.47
2019-01-11T17:21:42.244Z,9.20
2019-01-11T17:24:09.451Z,9.13
2019-01-11T17:26:36.652Z,9.07
2019-01-11T17:29:03.902Z,7.30
2019-01-11T17:31:31.116Z,11.00
2019-01-11T17:33:58.322Z,8.80
2019-01-11T17:36:25.495Z,9.70
2019-01-11T17:38:52.924Z,14.13
2019-01-11T17:41:20.149Z,7.53
2019-01-11T17:43:47.351Z,8.87
2019-01-11T17:46:14.573Z,8.30
2019-01-11T17:48:41.779Z,7.10
2019-01-11T17:51:08.988Z,7.80
2019-01-11T17:53:36.218Z,5.43
2019-01-11T17:56:03.479Z,6.40
2019-01-11T17:58:30.669Z,11.20
2019-01-11T18:00:57.860Z,4.17
2019-01-11T18:03:25.412Z,6.17
2019-01-11T18:05:52.766Z,6.80
2019-01-11T18:08:19.992Z,11.63
2019-01-11T18:10:47.201Z,9.93
2019-01-11T18:13:15.820Z,7.27
2019-01-11T18:15:43.349Z,12.27
2019-01-11T18:18:10.566Z,8.53
2019-01-11T18:20:37.784Z,8.00
2019-01-11T18:23:07.126Z,5.50
2019-01-11T18:25:34.044Z,10.77
2019-01-11T18:28:01.291Z,7.57
2019-01-11T18:30:28.500Z,6.13
2019-01-11T18:32:55.699Z,10.57
2019-01-11T18:35:22.932Z,10.27
2019-01-11T18:37:50.271Z,7.40
2019-01-11T18:40:22.355Z,11.27
2019-01-11T18:42:49.555Z,10.33
2019-01-11T18:45:16.767Z,8.10
2019-01-11T18:47:43.945Z,8.00
2019-01-11T18:50:14.006Z,6.07
2019-01-11T18:52:41.192Z,8.97
2019-01-11T18:55:08.408Z,10.77
2019-01-11T18:57:35.706Z,6.10
2019-01-11T19:00:04.511Z,8.23
2019-01-11T19:02:31.894Z,7.43
2019-01-11T19:04:59.209Z,10.17
2019-01-11T19:07:26.426Z,7.83
2019-01-11T19:09:53.661Z,7.60
2019-01-11T19:12:20.828Z,8.53
2019-01-11T19:14:48.038Z,12.37
2019-01-11T19:17:15.248Z,9.90
2019-01-11T19:19:42.449Z,7.33
2019-01-11T19:22:09.688Z,7.07
2019-01-11T19:24:37.022Z,6.97
2019-01-11T19:27:04.227Z,7.30
2019-01-11T19:29:31.456Z,8.40
2019-01-11T19:31:58.709Z,5.93
2019-01-11T19:34:25.909Z,11.77
2019-01-11T19:36:53.134Z,9.00
2019-01-11T19:39:20.420Z,10.83
2019-01-11T19:41:47.655Z,6.70
2019-01-11T19:44:14.866Z,6.20
2019-01-11T19:46:42.470Z,9.30
2019-01-11T19:49:09.791Z,11.80
2019-01-11T19:51:37.114Z,7.67
2019-01-11T19:54:04.371Z,10.43
2019-01-11T19:56:31.581Z,7.63
2019-01-11T19:58:58.792Z,6.03
2019-01-11T20:01:26.261Z,7.67
2019-01-11T20:03:53.548Z,16.83
2019-01-11T20:06:20.757Z,9.47
2019-01-11T20:08:48.001Z,6.63
2019-01-11T20:11:15.257Z,9.80
2019-01-11T20:13:42.551Z,7.73
2019-01-11T20:16:09.768Z,8.30
2019-01-11T20:18:36.970Z,6.03
2019-01-11T20:21:04.200Z,14.23
2019-01-11T20:23:36.541Z,9.30
2019-01-11T20:26:00.546Z,10.33
2019-01-11T20:28:27.770Z,4.50
2019-01-11T20:30:54.984Z,9.30
2019-01-11T20:33:22.233Z,9.60
2019-01-11T20:35:49.463Z,7.30
2019-01-11T20:38:16.706Z,6.77
2019-01-11T20:40:43.933Z,8.50
2019-01-11T20:43:11.218Z,10.10
2019-01-11T20:45:38.381Z,7.37
2019-01-11T20:48:05.714Z,6.20
2019-01-11T20:50:32.887Z,7.77
2019-01-11T20:53:00.109Z,8.17
2019-01-11T20:55:27.364Z,8.57
2019-01-11T20:57:55.180Z,8.90
2019-01-11T21:00:27.912Z,9.27
2019-01-11T21:02:55.119Z,5.90
2019-01-11T21:05:22.374Z,8.67
2019-01-11T21:07:49.575Z,7.17
2019-01-11T21:10:16.844Z,10.13
2019-01-11T21:12:44.057Z,6.60
2019-01-11T21:15:11.945Z,7.53
2019-01-11T21:17:39.319Z,7.57
2019-01-11T21:20:08.788Z,5.73
2019-01-11T21:22:35.988Z,7.00
2019-01-11T21:25:03.959Z,7.10
2019-01-11T21:27:31.230Z,6.20
2019-01-11T21:29:58.456Z,6.60
2019-01-11T21:32:25.671Z,6.90
2019-01-11T21:34:52.828Z,7.47
2019-01-11T21:37:20.171Z,6.83
2019-01-11T21:39:47.394Z,8.63
2019-01-11T21:42:19.057Z,9.93
2019-01-11T21:44:43.799Z,6.97
2019-01-11T21:47:11.085Z,5.60
2019-01-11T21:49:38.306Z,7.80
2019-01-11T21:52:05.560Z,5.40
2019-01-11T21:54:32.766Z,8.03
2019-01-11T21:57:00.099Z,8.07
2019-01-11T21:59:27.292Z,5.23
2019-01-11T22:01:54.523Z,4.93
2019-01-11T22:04:21.750Z,10.20
2019-01-11T22:06:48.917Z,6.10
2019-01-11T22:09:16.117Z,7.57
2019-01-11T22:11:43.330Z,8.00
2019-01-11T22:14:10.577Z,5.17
2019-01-11T22:16:37.775Z,6.97
2019-01-11T22:19:05.026Z,6.73
2019-01-11T22:21:32.243Z,9.53
2019-01-11T22:24:03.242Z,7.37
2019-01-11T22:26:28.712Z,5.23
2019-01-11T22:28:55.916Z,4.30
2019-01-11T22:31:23.158Z,8.03
2019-01-11T22:33:50.502Z,8.50
2019-01-11T22:36:17.676Z,8.17
2019-01-11T22:38:45.034Z,5.80
2019-01-11T22:41:12.193Z,9.73
2019-01-11T22:43:39.411Z,5.20
2019-01-11T22:46:06.672Z,7.17
2019-01-11T22:48:33.902Z,8.60
2019-01-11T22:51:01.140Z,6.13
2019-01-11T22:53:28.328Z,13.80
2019-01-11T22:55:55.598Z,7.20
2019-01-11T22:58:22.807Z,8.13
2019-01-11T23:01:31.976Z,8.23
2019-01-11T23:03:59.190Z,5.90
2019-01-11T23:07:10.100Z,6.50
2019-01-11T23:09:53.320Z,5.63
2019-01-11T23:12:29.941Z,8.93
2019-01-11T23:14:57.121Z,10.53
2019-01-11T23:17:58.789Z,6.20
2019-01-11T23:20:25.986Z,4.67
2019-01-11T23:22:53.174Z,6.50
2019-01-11T23:25:20.451Z,8.77
2019-01-11T23:27:47.648Z,6.40
2019-01-11T23:30:16.282Z,4.93
2019-01-11T23:32:43.512Z,6.00
2019-01-11T23:35:10.811Z,8.77
2019-01-11T23:37:38.057Z,10.70
2019-01-11T23:40:06.377Z,5.80
2019-01-11T23:42:33.586Z,9.10
2019-01-11T23:45:00.877Z,8.93
2019-01-11T23:47:28.126Z,8.13
2019-01-11T23:49:55.295Z,6.87
2019-01-11T23:52:22.629Z,6.97
2019-01-11T23:54:49.855Z,8.07
2019-01-11T23:57:17.057Z,7.00
2019-01-11T23:59:44.305Z,4.57
